sensor_id;sensor_type;location;lat;lon;timestamp;P1;durP1;ratioP1;P2;durP2;ratioP2
21814;SDS011;11069;48.988;8.450;2023-12-07T00:01:19;18.88;;;15.02;;
21814;SDS011;11069;48.988;8.450;2023-12-07T00:03:44;19.73;;;15.27;;
21814;SDS011;11069;48.988;8.450;2023-12-07T00:06:10;21.13;;;15.40;;
21814;SDS011;11069;48.988;8.450;2023-12-07T00:08:36;19.35;;;14.93;;
21814;SDS011;11069;48.988;8.450;2023-12-07T00:11:01;19.85;;;16.13;;
21814;SDS011;11069;48.988;8.450;2023-12-07T00:13:27;20.02;;;15.48;;
21814;SDS011;11069;48.988;8.450;2023-12-07T00:15:52;22.05;;;15.43;;
21814;SDS011;11069;48.988;8.450;2023-12-07T00:18:18;18.92;;;15.18;;
21814;SDS011;11069;48.988;8.450;2023-12-07T00:20:44;19.70;;;14.98;;
21814;SDS011;11069;48.988;8.450;2023-12-07T00:23:10;19.65;;;14.68;;
21814;SDS011;11069;48.988;8.450;2023-12-07T00:25:35;18.35;;;14.32;;
21814;SDS011;11069;48.988;8.450;2023-12-07T00:28:01;18.40;;;14.85;;
21814;SDS011;11069;48.988;8.450;2023-12-07T00:30:28;21.88;;;15.10;;
21814;SDS011;11069;48.988;8.450;2023-12-07T00:32:54;19.60;;;15.15;;
21814;SDS011;11069;48.988;8.450;2023-12-07T00:35:22;21.60;;;15.32;;
21814;SDS011;11069;48.988;8.450;2023-12-07T00:37:48;18.20;;;13.52;;
21814;SDS011;11069;48.988;8.450;2023-12-07T00:40:14;17.02;;;13.57;;
21814;SDS011;11069;48.988;8.450;2023-12-07T00:42:39;16.60;;;13.75;;
21814;SDS011;11069;48.988;8.450;2023-12-07T00:45:05;16.45;;;14.10;;
21814;SDS011;11069;48.988;8.450;2023-12-07T00:47:31;17.17;;;13.35;;
21814;SDS011;11069;48.988;8.450;2023-12-07T00:49:56;15.82;;;13.05;;
21814;SDS011;11069;48.988;8.450;2023-12-07T00:52:22;16.77;;;13.05;;
21814;SDS011;11069;48.988;8.450;2023-12-07T00:54:48;15.05;;;11.98;;
21814;SDS011;11069;48.988;8.450;2023-12-07T00:57:13;16.58;;;13.80;;
21814;SDS011;11069;48.988;8.450;2023-12-07T00:59:39;17.02;;;12.80;;
21814;SDS011;11069;48.988;8.450;2023-12-07T01:02:05;15.45;;;12.75;;
21814;SDS011;11069;48.988;8.450;2023-12-07T01:04:31;15.63;;;12.52;;
21814;SDS011;11069;48.988;8.450;2023-12-07T01:06:57;14.80;;;12.52;;
21814;SDS011;11069;48.988;8.450;2023-12-07T01:09:23;18.10;;;12.80;;
21814;SDS011;11069;48.988;8.450;2023-12-07T01:11:49;14.20;;;12.38;;
21814;SDS011;11069;48.988;8.450;2023-12-07T01:14:15;16.98;;;12.40;;
21814;SDS011;11069;48.988;8.450;2023-12-07T01:16:41;15.73;;;12.65;;
21814;SDS011;11069;48.988;8.450;2023-12-07T01:19:07;15.13;;;12.90;;
21814;SDS011;11069;48.988;8.450;2023-12-07T01:21:33;14.93;;;11.88;;
21814;SDS011;11069;48.988;8.450;2023-12-07T01:23:59;15.18;;;12.07;;
21814;SDS011;11069;48.988;8.450;2023-12-07T01:26:24;16.63;;;12.65;;
21814;SDS011;11069;48.988;8.450;2023-12-07T01:28:50;16.30;;;12.45;;
21814;SDS011;11069;48.988;8.450;2023-12-07T01:31:16;15.02;;;12.75;;
21814;SDS011;11069;48.988;8.450;2023-12-07T01:33:42;14.43;;;11.77;;
21814;SDS011;11069;48.988;8.450;2023-12-07T01:36:08;15.23;;;12.52;;
21814;SDS011;11069;48.988;8.450;2023-12-07T01:38:34;16.08;;;12.35;;
21814;SDS011;11069;48.988;8.450;2023-12-07T01:40:59;14.48;;;12.52;;
21814;SDS011;11069;48.988;8.450;2023-12-07T01:43:25;18.60;;;13.27;;
21814;SDS011;11069;48.988;8.450;2023-12-07T01:45:51;17.10;;;13.35;;
21814;SDS011;11069;48.988;8.450;2023-12-07T01:48:20;17.95;;;13.18;;
21814;SDS011;11069;48.988;8.450;2023-12-07T01:50:46;17.15;;;13.45;;
21814;SDS011;11069;48.988;8.450;2023-12-07T01:53:12;18.55;;;13.43;;
21814;SDS011;11069;48.988;8.450;2023-12-07T01:55:38;17.75;;;13.52;;
21814;SDS011;11069;48.988;8.450;2023-12-07T01:58:05;18.52;;;14.60;;
21814;SDS011;11069;48.988;8.450;2023-12-07T02:00:31;17.05;;;13.13;;
21814;SDS011;11069;48.988;8.450;2023-12-07T02:02:59;19.52;;;14.25;;
21814;SDS011;11069;48.988;8.450;2023-12-07T02:05:27;20.50;;;14.50;;
21814;SDS011;11069;48.988;8.450;2023-12-07T02:07:53;18.45;;;14.13;;
21814;SDS011;11069;48.988;8.450;2023-12-07T02:10:19;17.45;;;13.43;;
21814;SDS011;11069;48.988;8.450;2023-12-07T02:12:45;16.00;;;13.50;;
21814;SDS011;11069;48.988;8.450;2023-12-07T02:15:12;17.60;;;14.60;;
21814;SDS011;11069;48.988;8.450;2023-12-07T02:17:40;17.95;;;14.10;;
21814;SDS011;11069;48.988;8.450;2023-12-07T02:20:26;16.38;;;13.90;;
21814;SDS011;11069;48.988;8.450;2023-12-07T02:23:01;16.45;;;13.25;;
21814;SDS011;11069;48.988;8.450;2023-12-07T02:28:18;18.70;;;14.30;;
21814;SDS011;11069;48.988;8.450;2023-12-07T02:30:44;19.30;;;14.68;;
21814;SDS011;11069;48.988;8.450;2023-12-07T02:33:10;19.48;;;14.80;;
21814;SDS011;11069;48.988;8.450;2023-12-07T02:35:36;19.23;;;15.13;;
21814;SDS011;11069;48.988;8.450;2023-12-07T02:38:02;19.70;;;15.25;;
21814;SDS011;11069;48.988;8.450;2023-12-07T02:40:30;19.85;;;16.15;;
21814;SDS011;11069;48.988;8.450;2023-12-07T02:42:56;19.08;;;15.63;;
21814;SDS011;11069;48.988;8.450;2023-12-07T02:45:24;20.05;;;16.35;;
21814;SDS011;11069;48.988;8.450;2023-12-07T02:47:53;20.60;;;16.65;;
21814;SDS011;11069;48.988;8.450;2023-12-07T02:50:19;23.67;;;17.30;;
21814;SDS011;11069;48.988;8.450;2023-12-07T02:52:45;23.05;;;17.50;;
21814;SDS011;11069;48.988;8.450;2023-12-07T02:55:11;24.77;;;16.90;;
21814;SDS011;11069;48.988;8.450;2023-12-07T02:57:36;23.92;;;17.38;;
21814;SDS011;11069;48.988;8.450;2023-12-07T03:00:03;22.23;;;16.25;;
21814;SDS011;11069;48.988;8.450;2023-12-07T03:02:33;20.58;;;16.50;;
21814;SDS011;11069;48.988;8.450;2023-12-07T03:05:02;19.77;;;15.93;;
21814;SDS011;11069;48.988;8.450;2023-12-07T03:07:28;18.17;;;14.60;;
21814;SDS011;11069;48.988;8.450;2023-12-07T03:09:54;20.48;;;15.38;;
21814;SDS011;11069;48.988;8.450;2023-12-07T03:12:20;21.02;;;15.90;;
21814;SDS011;11069;48.988;8.450;2023-12-07T03:14:45;20.05;;;16.25;;
21814;SDS011;11069;48.988;8.450;2023-12-07T03:17:11;19.88;;;15.00;;
21814;SDS011;11069;48.988;8.450;2023-12-07T03:19:40;22.30;;;16.38;;
21814;SDS011;11069;48.988;8.450;2023-12-07T03:22:06;20.55;;;16.00;;
21814;SDS011;11069;48.988;8.450;2023-12-07T03:24:32;19.75;;;15.15;;
21814;SDS011;11069;48.988;8.450;2023-12-07T03:26:59;20.90;;;16.02;;
21814;SDS011;11069;48.988;8.450;2023-12-07T03:29:25;20.00;;;15.95;;
21814;SDS011;11069;48.988;8.450;2023-12-07T03:31:50;23.67;;;16.85;;
21814;SDS011;11069;48.988;8.450;2023-12-07T03:34:16;21.70;;;15.43;;
21814;SDS011;11069;48.988;8.450;2023-12-07T03:36:47;21.30;;;16.27;;
21814;SDS011;11069;48.988;8.450;2023-12-07T03:39:13;21.45;;;15.82;;
21814;SDS011;11069;48.988;8.450;2023-12-07T03:41:39;23.30;;;16.52;;
21814;SDS011;11069;48.988;8.450;2023-12-07T03:44:05;24.42;;;16.75;;
21814;SDS011;11069;48.988;8.450;2023-12-07T03:46:31;22.05;;;16.67;;
21814;SDS011;11069;48.988;8.450;2023-12-07T03:48:56;22.70;;;16.73;;
21814;SDS011;11069;48.988;8.450;2023-12-07T03:51:22;22.33;;;16.85;;
21814;SDS011;11069;48.988;8.450;2023-12-07T03:53:48;24.02;;;17.08;;
21814;SDS011;11069;48.988;8.450;2023-12-07T03:56:23;21.33;;;16.33;;
21814;SDS011;11069;48.988;8.450;2023-12-07T03:58:49;21.35;;;16.17;;
21814;SDS011;11069;48.988;8.450;2023-12-07T04:01:15;21.27;;;15.00;;
21814;SDS011;11069;48.988;8.450;2023-12-07T04:03:40;22.48;;;16.80;;
21814;SDS011;11069;48.988;8.450;2023-12-07T04:06:06;22.40;;;16.65;;
21814;SDS011;11069;48.988;8.450;2023-12-07T04:08:31;21.70;;;16.55;;
21814;SDS011;11069;48.988;8.450;2023-12-07T04:10:58;21.42;;;16.52;;
21814;SDS011;11069;48.988;8.450;2023-12-07T04:13:23;21.77;;;16.13;;
21814;SDS011;11069;48.988;8.450;2023-12-07T04:15:49;23.75;;;16.52;;
21814;SDS011;11069;48.988;8.450;2023-12-07T04:18:14;20.05;;;15.60;;
21814;SDS011;11069;48.988;8.450;2023-12-07T04:20:40;21.42;;;16.42;;
21814;SDS011;11069;48.988;8.450;2023-12-07T04:23:06;21.77;;;15.88;;
21814;SDS011;11069;48.988;8.450;2023-12-07T04:25:31;22.38;;;17.23;;
21814;SDS011;11069;48.988;8.450;2023-12-07T04:27:57;21.70;;;16.40;;
21814;SDS011;11069;48.988;8.450;2023-12-07T04:30:23;24.27;;;17.27;;
21814;SDS011;11069;48.988;8.450;2023-12-07T04:32:49;23.20;;;16.73;;
21814;SDS011;11069;48.988;8.450;2023-12-07T04:35:14;20.35;;;15.95;;
21814;SDS011;11069;48.988;8.450;2023-12-07T04:37:40;22.05;;;17.10;;
21814;SDS011;11069;48.988;8.450;2023-12-07T04:40:06;21.52;;;16.02;;
21814;SDS011;11069;48.988;8.450;2023-12-07T04:42:32;20.25;;;15.85;;
21814;SDS011;11069;48.988;8.450;2023-12-07T04:44:57;23.75;;;16.55;;
21814;SDS011;11069;48.988;8.450;2023-12-07T04:47:23;22.05;;;16.65;;
21814;SDS011;11069;48.988;8.450;2023-12-07T04:49:48;19.95;;;15.77;;
21814;SDS011;11069;48.988;8.450;2023-12-07T04:52:14;21.00;;;15.95;;
21814;SDS011;11069;48.988;8.450;2023-12-07T04:54:40;21.38;;;16.08;;
21814;SDS011;11069;48.988;8.450;2023-12-07T04:57:06;22.05;;;16.95;;
21814;SDS011;11069;48.988;8.450;2023-12-07T04:59:32;21.70;;;16.50;;
21814;SDS011;11069;48.988;8.450;2023-12-07T05:01:57;20.75;;;16.35;;
21814;SDS011;11069;48.988;8.450;2023-12-07T05:04:23;22.55;;;16.92;;
21814;SDS011;11069;48.988;8.450;2023-12-07T05:06:49;21.52;;;16.25;;
21814;SDS011;11069;48.988;8.450;2023-12-07T05:09:15;20.38;;;16.23;;
21814;SDS011;11069;48.988;8.450;2023-12-07T05:11:41;21.15;;;16.33;;
21814;SDS011;11069;48.988;8.450;2023-12-07T05:14:06;24.27;;;17.30;;
21814;SDS011;11069;48.988;8.450;2023-12-07T05:16:32;22.05;;;16.63;;
21814;SDS011;11069;48.988;8.450;2023-12-07T05:18:58;22.77;;;16.70;;
21814;SDS011;11069;48.988;8.450;2023-12-07T05:21:23;22.10;;;16.63;;
21814;SDS011;11069;48.988;8.450;2023-12-07T05:23:49;21.30;;;16.30;;
21814;SDS011;11069;48.988;8.450;2023-12-07T05:26:15;21.48;;;16.58;;
21814;SDS011;11069;48.988;8.450;2023-12-07T05:28:41;22.42;;;16.88;;
21814;SDS011;11069;48.988;8.450;2023-12-07T05:31:07;22.48;;;16.55;;
21814;SDS011;11069;48.988;8.450;2023-12-07T05:33:32;20.30;;;16.75;;
21814;SDS011;11069;48.988;8.450;2023-12-07T05:35:58;21.33;;;16.45;;
21814;SDS011;11069;48.988;8.450;2023-12-07T05:38:25;25.45;;;17.15;;
21814;SDS011;11069;48.988;8.450;2023-12-07T05:40:51;25.13;;;17.80;;
21814;SDS011;11069;48.988;8.450;2023-12-07T05:43:16;23.58;;;17.38;;
21814;SDS011;11069;48.988;8.450;2023-12-07T05:45:42;26.38;;;18.92;;
21814;SDS011;11069;48.988;8.450;2023-12-07T05:48:07;22.40;;;16.55;;
21814;SDS011;11069;48.988;8.450;2023-12-07T05:50:33;22.58;;;16.88;;
21814;SDS011;11069;48.988;8.450;2023-12-07T05:52:58;24.33;;;17.70;;
21814;SDS011;11069;48.988;8.450;2023-12-07T05:55:24;24.95;;;18.13;;
21814;SDS011;11069;48.988;8.450;2023-12-07T05:57:50;26.05;;;18.60;;
21814;SDS011;11069;48.988;8.450;2023-12-07T06:00:16;23.83;;;18.02;;
21814;SDS011;11069;48.988;8.450;2023-12-07T06:02:44;24.75;;;18.60;;
21814;SDS011;11069;48.988;8.450;2023-12-07T06:05:09;24.98;;;18.73;;
21814;SDS011;11069;48.988;8.450;2023-12-07T06:07:36;24.95;;;18.33;;
21814;SDS011;11069;48.988;8.450;2023-12-07T06:10:01;24.23;;;18.73;;
21814;SDS011;11069;48.988;8.450;2023-12-07T06:12:27;24.88;;;19.27;;
21814;SDS011;11069;48.988;8.450;2023-12-07T06:14:55;30.10;;;20.13;;
21814;SDS011;11069;48.988;8.450;2023-12-07T06:17:20;24.88;;;18.65;;
21814;SDS011;11069;48.988;8.450;2023-12-07T06:19:46;27.33;;;19.13;;
21814;SDS011;11069;48.988;8.450;2023-12-07T06:22:12;24.17;;;18.23;;
21814;SDS011;11069;48.988;8.450;2023-12-07T06:24:38;24.73;;;18.83;;
21814;SDS011;11069;48.988;8.450;2023-12-07T06:27:04;26.05;;;18.52;;
21814;SDS011;11069;48.988;8.450;2023-12-07T06:29:30;29.45;;;20.13;;
21814;SDS011;11069;48.988;8.450;2023-12-07T06:31:55;28.35;;;21.05;;
21814;SDS011;11069;48.988;8.450;2023-12-07T06:34:21;25.42;;;18.52;;
21814;SDS011;11069;48.988;8.450;2023-12-07T06:36:46;26.13;;;19.27;;
21814;SDS011;11069;48.988;8.450;2023-12-07T06:39:12;27.35;;;19.10;;
21814;SDS011;11069;48.988;8.450;2023-12-07T06:41:39;27.13;;;19.40;;
21814;SDS011;11069;48.988;8.450;2023-12-07T06:44:05;26.90;;;19.17;;
21814;SDS011;11069;48.988;8.450;2023-12-07T06:46:32;26.30;;;18.35;;
21814;SDS011;11069;48.988;8.450;2023-12-07T06:48:57;26.10;;;18.67;;
21814;SDS011;11069;48.988;8.450;2023-12-07T06:51:23;25.30;;;18.58;;
21814;SDS011;11069;48.988;8.450;2023-12-07T06:53:48;26.30;;;19.60;;
21814;SDS011;11069;48.988;8.450;2023-12-07T06:56:14;26.75;;;19.27;;
21814;SDS011;11069;48.988;8.450;2023-12-07T06:58:40;27.30;;;21.30;;
21814;SDS011;11069;48.988;8.450;2023-12-07T07:01:06;30.23;;;20.25;;
21814;SDS011;11069;48.988;8.450;2023-12-07T07:03:31;28.00;;;20.70;;
21814;SDS011;11069;48.988;8.450;2023-12-07T07:05:57;28.75;;;21.27;;
21814;SDS011;11069;48.988;8.450;2023-12-07T07:08:24;27.73;;;21.23;;
21814;SDS011;11069;48.988;8.450;2023-12-07T07:10:49;29.25;;;21.42;;
21814;SDS011;11069;48.988;8.450;2023-12-07T07:13:15;30.35;;;21.70;;
21814;SDS011;11069;48.988;8.450;2023-12-07T07:15:42;27.63;;;21.83;;
21814;SDS011;11069;48.988;8.450;2023-12-07T07:18:10;29.10;;;21.23;;
21814;SDS011;11069;48.988;8.450;2023-12-07T07:20:36;30.85;;;21.95;;
21814;SDS011;11069;48.988;8.450;2023-12-07T07:23:02;29.30;;;22.08;;
21814;SDS011;11069;48.988;8.450;2023-12-07T07:25:28;32.80;;;23.52;;
21814;SDS011;11069;48.988;8.450;2023-12-07T07:27:53;37.33;;;24.42;;
21814;SDS011;11069;48.988;8.450;2023-12-07T07:30:20;34.90;;;25.23;;
21814;SDS011;11069;48.988;8.450;2023-12-07T07:32:45;33.72;;;25.27;;
21814;SDS011;11069;48.988;8.450;2023-12-07T07:35:11;30.95;;;24.02;;
21814;SDS011;11069;48.988;8.450;2023-12-07T07:37:40;31.42;;;23.98;;
21814;SDS011;11069;48.988;8.450;2023-12-07T07:40:07;30.42;;;23.45;;
21814;SDS011;11069;48.988;8.450;2023-12-07T07:42:36;32.55;;;23.88;;
21814;SDS011;11069;48.988;8.450;2023-12-07T07:45:05;32.50;;;24.13;;
21814;SDS011;11069;48.988;8.450;2023-12-07T07:47:32;33.25;;;24.08;;
21814;SDS011;11069;48.988;8.450;2023-12-07T07:49:57;31.30;;;21.75;;
21814;SDS011;11069;48.988;8.450;2023-12-07T07:52:23;27.58;;;21.30;;
21814;SDS011;11069;48.988;8.450;2023-12-07T07:54:49;28.25;;;20.90;;
21814;SDS011;11069;48.988;8.450;2023-12-07T07:57:15;29.17;;;21.40;;
21814;SDS011;11069;48.988;8.450;2023-12-07T07:59:41;31.15;;;22.23;;
21814;SDS011;11069;48.988;8.450;2023-12-07T08:02:07;28.10;;;21.42;;
21814;SDS011;11069;48.988;8.450;2023-12-07T08:04:32;31.60;;;21.00;;
21814;SDS011;11069;48.988;8.450;2023-12-07T08:06:58;30.17;;;21.98;;
21814;SDS011;11069;48.988;8.450;2023-12-07T08:09:23;27.23;;;21.90;;
21814;SDS011;11069;48.988;8.450;2023-12-07T08:11:49;29.88;;;22.08;;
21814;SDS011;11069;48.988;8.450;2023-12-07T08:14:15;27.70;;;21.48;;
21814;SDS011;11069;48.988;8.450;2023-12-07T08:16:46;29.92;;;21.63;;
21814;SDS011;11069;48.988;8.450;2023-12-07T08:19:12;25.80;;;19.63;;
21814;SDS011;11069;48.988;8.450;2023-12-07T08:21:38;26.98;;;20.98;;
21814;SDS011;11069;48.988;8.450;2023-12-07T08:24:04;27.35;;;20.98;;
21814;SDS011;11069;48.988;8.450;2023-12-07T08:26:30;22.90;;;19.08;;
21814;SDS011;11069;48.988;8.450;2023-12-07T08:28:56;23.05;;;15.70;;
21814;SDS011;11069;48.988;8.450;2023-12-07T08:31:22;17.48;;;14.52;;
21814;SDS011;11069;48.988;8.450;2023-12-07T08:33:49;20.90;;;14.10;;
21814;SDS011;11069;48.988;8.450;2023-12-07T08:36:15;16.83;;;12.18;;
21814;SDS011;11069;48.988;8.450;2023-12-07T08:38:41;15.05;;;11.55;;
21814;SDS011;11069;48.988;8.450;2023-12-07T08:41:07;12.35;;;10.10;;
21814;SDS011;11069;48.988;8.450;2023-12-07T08:43:33;13.48;;;10.13;;
21814;SDS011;11069;48.988;8.450;2023-12-07T08:45:58;11.98;;;9.38;;
21814;SDS011;11069;48.988;8.450;2023-12-07T08:48:24;13.38;;;8.70;;
21814;SDS011;11069;48.988;8.450;2023-12-07T08:50:49;11.30;;;8.40;;
21814;SDS011;11069;48.988;8.450;2023-12-07T08:53:16;10.32;;;8.27;;
21814;SDS011;11069;48.988;8.450;2023-12-07T08:55:42;9.10;;;7.78;;
21814;SDS011;11069;48.988;8.450;2023-12-07T08:58:07;9.85;;;7.60;;
21814;SDS011;11069;48.988;8.450;2023-12-07T09:00:33;11.05;;;7.68;;
21814;SDS011;11069;48.988;8.450;2023-12-07T09:02:58;10.45;;;6.38;;
21814;SDS011;11069;48.988;8.450;2023-12-07T09:05:26;9.02;;;6.25;;
21814;SDS011;11069;48.988;8.450;2023-12-07T09:07:51;6.80;;;5.93;;
21814;SDS011;11069;48.988;8.450;2023-12-07T09:10:17;11.30;;;7.22;;
21814;SDS011;11069;48.988;8.450;2023-12-07T09:12:43;8.48;;;5.70;;
21814;SDS011;11069;48.988;8.450;2023-12-07T09:15:09;7.20;;;5.65;;
21814;SDS011;11069;48.988;8.450;2023-12-07T09:17:35;6.60;;;5.05;;
21814;SDS011;11069;48.988;8.450;2023-12-07T09:20:04;7.97;;;5.40;;
21814;SDS011;11069;48.988;8.450;2023-12-07T09:22:30;7.38;;;5.63;;
21814;SDS011;11069;48.988;8.450;2023-12-07T09:24:55;7.28;;;5.53;;
21814;SDS011;11069;48.988;8.450;2023-12-07T09:27:21;6.50;;;5.32;;
21814;SDS011;11069;48.988;8.450;2023-12-07T09:29:48;6.22;;;5.63;;
21814;SDS011;11069;48.988;8.450;2023-12-07T09:32:13;8.38;;;5.63;;
21814;SDS011;11069;48.988;8.450;2023-12-07T09:34:39;7.43;;;6.03;;
21814;SDS011;11069;48.988;8.450;2023-12-07T09:37:08;5.75;;;4.30;;
21814;SDS011;11069;48.988;8.450;2023-12-07T09:39:34;6.78;;;4.82;;
21814;SDS011;11069;48.988;8.450;2023-12-07T09:42:01;8.68;;;6.53;;
21814;SDS011;11069;48.988;8.450;2023-12-07T09:44:27;9.43;;;6.75;;
21814;SDS011;11069;48.988;8.450;2023-12-07T09:46:53;9.18;;;7.05;;
21814;SDS011;11069;48.988;8.450;2023-12-07T09:49:19;8.90;;;6.97;;
21814;SDS011;11069;48.988;8.450;2023-12-07T09:51:46;8.50;;;6.20;;
21814;SDS011;11069;48.988;8.450;2023-12-07T09:54:12;8.32;;;6.30;;
21814;SDS011;11069;48.988;8.450;2023-12-07T09:56:38;8.95;;;6.03;;
21814;SDS011;11069;48.988;8.450;2023-12-07T09:59:03;7.95;;;6.00;;
21814;SDS011;11069;48.988;8.450;2023-12-07T10:01:29;6.63;;;5.63;;
21814;SDS011;11069;48.988;8.450;2023-12-07T10:04:14;8.00;;;5.38;;
21814;SDS011;11069;48.988;8.450;2023-12-07T10:06:44;7.18;;;5.35;;
21814;SDS011;11069;48.988;8.450;2023-12-07T10:09:10;7.25;;;5.55;;
21814;SDS011;11069;48.988;8.450;2023-12-07T10:11:36;7.03;;;4.97;;
21814;SDS011;11069;48.988;8.450;2023-12-07T10:14:02;6.40;;;4.93;;
21814;SDS011;11069;48.988;8.450;2023-12-07T10:16:28;7.20;;;5.35;;
21814;SDS011;11069;48.988;8.450;2023-12-07T10:18:53;7.72;;;4.95;;
21814;SDS011;11069;48.988;8.450;2023-12-07T10:21:32;7.03;;;5.25;;
21814;SDS011;11069;48.988;8.450;2023-12-07T10:23:58;5.80;;;5.03;;
21814;SDS011;11069;48.988;8.450;2023-12-07T10:26:23;5.65;;;4.40;;
21814;SDS011;11069;48.988;8.450;2023-12-07T10:28:50;5.28;;;4.18;;
21814;SDS011;11069;48.988;8.450;2023-12-07T10:31:18;5.05;;;4.55;;
21814;SDS011;11069;48.988;8.450;2023-12-07T10:33:47;5.35;;;3.92;;
21814;SDS011;11069;48.988;8.450;2023-12-07T10:36:15;5.82;;;4.13;;
21814;SDS011;11069;48.988;8.450;2023-12-07T10:38:41;5.70;;;4.20;;
21814;SDS011;11069;48.988;8.450;2023-12-07T10:41:07;4.80;;;4.13;;
21814;SDS011;11069;48.988;8.450;2023-12-07T10:43:37;5.30;;;4.22;;
21814;SDS011;11069;48.988;8.450;2023-12-07T10:46:08;4.90;;;3.88;;
21814;SDS011;11069;48.988;8.450;2023-12-07T10:48:35;5.53;;;4.18;;
21814;SDS011;11069;48.988;8.450;2023-12-07T10:51:02;4.60;;;3.78;;
21814;SDS011;11069;48.988;8.450;2023-12-07T10:53:40;5.00;;;4.22;;
21814;SDS011;11069;48.988;8.450;2023-12-07T10:56:14;4.70;;;3.72;;
21814;SDS011;11069;48.988;8.450;2023-12-07T10:58:43;3.50;;;3.17;;
21814;SDS011;11069;48.988;8.450;2023-12-07T11:01:11;5.13;;;3.65;;
21814;SDS011;11069;48.988;8.450;2023-12-07T11:03:39;6.05;;;3.70;;
21814;SDS011;11069;48.988;8.450;2023-12-07T11:06:06;4.22;;;3.28;;
21814;SDS011;11069;48.988;8.450;2023-12-07T11:08:49;5.38;;;3.40;;
21814;SDS011;11069;48.988;8.450;2023-12-07T11:11:39;3.90;;;3.08;;
21814;SDS011;11069;48.988;8.450;2023-12-07T11:14:10;4.00;;;2.95;;
21814;SDS011;11069;48.988;8.450;2023-12-07T11:16:37;3.83;;;3.42;;
21814;SDS011;11069;48.988;8.450;2023-12-07T11:22:13;4.22;;;3.65;;
21814;SDS011;11069;48.988;8.450;2023-12-07T11:24:51;4.68;;;3.80;;
21814;SDS011;11069;48.988;8.450;2023-12-07T11:27:19;4.47;;;4.07;;
21814;SDS011;11069;48.988;8.450;2023-12-07T11:29:45;5.55;;;4.07;;
21814;SDS011;11069;48.988;8.450;2023-12-07T11:32:12;4.95;;;3.97;;
21814;SDS011;11069;48.988;8.450;2023-12-07T11:34:42;4.82;;;3.60;;
21814;SDS011;11069;48.988;8.450;2023-12-07T11:37:09;4.82;;;3.53;;
21814;SDS011;11069;48.988;8.450;2023-12-07T11:39:36;5.85;;;4.03;;
21814;SDS011;11069;48.988;8.450;2023-12-07T11:42:10;4.72;;;4.13;;
21814;SDS011;11069;48.988;8.450;2023-12-07T11:44:37;4.35;;;3.58;;
21814;SDS011;11069;48.988;8.450;2023-12-07T11:47:03;4.75;;;3.65;;
21814;SDS011;11069;48.988;8.450;2023-12-07T11:49:30;4.03;;;3.50;;
21814;SDS011;11069;48.988;8.450;2023-12-07T11:51:57;4.00;;;3.10;;
21814;SDS011;11069;48.988;8.450;2023-12-07T11:54:23;8.90;;;3.28;;
21814;SDS011;11069;48.988;8.450;2023-12-07T11:56:53;4.10;;;3.03;;
21814;SDS011;11069;48.988;8.450;2023-12-07T11:59:20;3.47;;;2.97;;
21814;SDS011;11069;48.988;8.450;2023-12-07T12:01:46;4.00;;;2.83;;
21814;SDS011;11069;48.988;8.450;2023-12-07T12:04:12;4.53;;;3.05;;
21814;SDS011;11069;48.988;8.450;2023-12-07T12:06:39;4.20;;;2.78;;
21814;SDS011;11069;48.988;8.450;2023-12-07T12:09:05;2.45;;;2.25;;
21814;SDS011;11069;48.988;8.450;2023-12-07T12:11:30;4.88;;;2.28;;
21814;SDS011;11069;48.988;8.450;2023-12-07T12:13:56;4.50;;;2.40;;
21814;SDS011;11069;48.988;8.450;2023-12-07T12:16:22;3.00;;;2.28;;
21814;SDS011;11069;48.988;8.450;2023-12-07T12:18:48;3.20;;;2.38;;
21814;SDS011;11069;48.988;8.450;2023-12-07T12:21:14;3.25;;;2.53;;
21814;SDS011;11069;48.988;8.450;2023-12-07T12:23:39;2.40;;;2.13;;
21814;SDS011;11069;48.988;8.450;2023-12-07T12:26:06;3.45;;;2.20;;
21814;SDS011;11069;48.988;8.450;2023-12-07T12:28:33;2.92;;;2.20;;
21814;SDS011;11069;48.988;8.450;2023-12-07T12:31:02;3.53;;;2.10;;
21814;SDS011;11069;48.988;8.450;2023-12-07T12:33:28;2.50;;;2.30;;
21814;SDS011;11069;48.988;8.450;2023-12-07T12:36:02;2.72;;;2.45;;
21814;SDS011;11069;48.988;8.450;2023-12-07T12:38:32;1.95;;;1.85;;
21814;SDS011;11069;48.988;8.450;2023-12-07T12:40:58;2.70;;;2.08;;
21814;SDS011;11069;48.988;8.450;2023-12-07T12:43:23;2.55;;;2.30;;
21814;SDS011;11069;48.988;8.450;2023-12-07T12:45:49;3.05;;;2.30;;
21814;SDS011;11069;48.988;8.450;2023-12-07T12:48:15;2.42;;;2.22;;
21814;SDS011;11069;48.988;8.450;2023-12-07T12:50:41;2.40;;;2.20;;
21814;SDS011;11069;48.988;8.450;2023-12-07T12:53:07;2.92;;;2.47;;
21814;SDS011;11069;48.988;8.450;2023-12-07T12:55:35;3.30;;;2.75;;
21814;SDS011;11069;48.988;8.450;2023-12-07T12:58:02;4.60;;;2.50;;
21814;SDS011;11069;48.988;8.450;2023-12-07T13:00:29;3.35;;;2.58;;
21814;SDS011;11069;48.988;8.450;2023-12-07T13:02:57;4.45;;;2.85;;
21814;SDS011;11069;48.988;8.450;2023-12-07T13:05:23;4.88;;;2.60;;
21814;SDS011;11069;48.988;8.450;2023-12-07T13:07:49;3.78;;;2.70;;
21814;SDS011;11069;48.988;8.450;2023-12-07T13:10:15;3.17;;;2.53;;
21814;SDS011;11069;48.988;8.450;2023-12-07T13:12:41;6.07;;;3.17;;
21814;SDS011;11069;48.988;8.450;2023-12-07T13:15:07;3.00;;;2.80;;
21814;SDS011;11069;48.988;8.450;2023-12-07T13:17:34;2.90;;;2.60;;
21814;SDS011;11069;48.988;8.450;2023-12-07T13:19:59;3.50;;;2.90;;
21814;SDS011;11069;48.988;8.450;2023-12-07T13:22:25;3.40;;;3.00;;
21814;SDS011;11069;48.988;8.450;2023-12-07T13:24:50;3.70;;;3.00;;
21814;SDS011;11069;48.988;8.450;2023-12-07T13:27:16;3.20;;;2.90;;
21814;SDS011;11069;48.988;8.450;2023-12-07T13:29:42;3.25;;;2.90;;
21814;SDS011;11069;48.988;8.450;2023-12-07T13:32:08;4.25;;;3.10;;
21814;SDS011;11069;48.988;8.450;2023-12-07T13:34:35;3.38;;;2.67;;
21814;SDS011;11069;48.988;8.450;2023-12-07T13:37:00;3.40;;;3.05;;
21814;SDS011;11069;48.988;8.450;2023-12-07T13:39:26;5.93;;;4.63;;
21814;SDS011;11069;48.988;8.450;2023-12-07T13:41:52;7.05;;;5.28;;
21814;SDS011;11069;48.988;8.450;2023-12-07T13:44:19;4.93;;;4.10;;
21814;SDS011;11069;48.988;8.450;2023-12-07T13:46:45;4.82;;;4.30;;
21814;SDS011;11069;48.988;8.450;2023-12-07T13:49:10;3.45;;;3.00;;
21814;SDS011;11069;48.988;8.450;2023-12-07T13:51:39;4.10;;;2.85;;
21814;SDS011;11069;48.988;8.450;2023-12-07T13:54:06;3.58;;;3.00;;
21814;SDS011;11069;48.988;8.450;2023-12-07T13:56:33;2.88;;;2.60;;
21814;SDS011;11069;48.988;8.450;2023-12-07T13:59:02;5.07;;;3.20;;
21814;SDS011;11069;48.988;8.450;2023-12-07T14:01:28;5.28;;;3.15;;
21814;SDS011;11069;48.988;8.450;2023-12-07T14:03:53;3.60;;;3.25;;
21814;SDS011;11069;48.988;8.450;2023-12-07T14:06:23;4.07;;;3.00;;
21814;SDS011;11069;48.988;8.450;2023-12-07T14:08:52;3.95;;;2.97;;
21814;SDS011;11069;48.988;8.450;2023-12-07T14:11:18;4.25;;;3.30;;
21814;SDS011;11069;48.988;8.450;2023-12-07T14:13:43;3.70;;;3.30;;
21814;SDS011;11069;48.988;8.450;2023-12-07T14:16:13;4.05;;;3.38;;
21814;SDS011;11069;48.988;8.450;2023-12-07T14:18:39;4.32;;;3.53;;
21814;SDS011;11069;48.988;8.450;2023-12-07T14:21:05;4.20;;;3.72;;
21814;SDS011;11069;48.988;8.450;2023-12-07T14:23:30;4.05;;;3.58;;
21814;SDS011;11069;48.988;8.450;2023-12-07T14:25:56;4.93;;;3.60;;
21814;SDS011;11069;48.988;8.450;2023-12-07T14:28:26;4.40;;;3.67;;
21814;SDS011;11069;48.988;8.450;2023-12-07T14:30:55;4.28;;;3.45;;
21814;SDS011;11069;48.988;8.450;2023-12-07T14:33:21;4.95;;;3.58;;